Time;durP1;ratioP1;P1;durP2;ratioP2;P2;SDS_P1;SDS_P2;PMS_P1;PMS_P2;Temp;Humidity;BMP_temperature;BMP_pressure;BME280_temperature;BME280_humidity;BME280_pressure;Samples;Min_cycle;Max_cycle;Signal;HPM_P1;HPM_P2
2021/06/06 00:02:09;;;;;;;7.70;6.60;;;20.10;69.40;;;;;;6248510;23;20020;-71
2021/06/06 00:04:39;;;;;;;7.20;6.45;;;20.10;69.50;;;;;;6257998;23;20463;-71
2021/06/06 00:07:05;;;;;;;8.20;6.90;;;20.10;69.40;;;;;;6259005;23;20020;-71
2021/06/06 00:09:31;;;;;;;8.00;7.20;;;20.10;69.40;;;;;;6258232;23;20020;-71
2021/06/06 00:11:57;;;;;;;7.53;6.80;;;20.10;69.40;;;;;;6249173;23;20278;-71
2021/06/06 00:14:35;;;;;;;8.07;6.53;;;20.10;69.40;;;;;;6259290;23;20038;-70
2021/06/06 00:17:05;;;;;;;8.05;6.22;;;20.10;69.40;;;;;;6258451;23;20012;-71
2021/06/06 00:19:31;;;;;;;9.57;7.00;;;20.10;69.40;;;;;;6249076;23;20016;-70
2021/06/06 00:21:59;;;;;;;8.55;7.03;;;20.10;69.50;;;;;;6258514;23;20051;-71
2021/06/06 00:24:28;;;;;;;9.43;7.55;;;20.10;69.40;;;;;;6257863;23;20357;-71
2021/06/06 00:26:55;;;;;;;7.65;6.85;;;20.00;69.40;;;;;;6258942;23;20475;-71
2021/06/06 00:29:21;;;;;;;7.43;6.68;;;20.10;69.50;;;;;;6258211;23;20012;-71
2021/06/06 00:31:47;;;;;;;8.13;7.32;;;20.00;69.40;;;;;;6247854;23;20020;-71
2021/06/06 00:34:13;;;;;;;8.80;6.95;;;20.10;69.40;;;;;;6248255;23;20017;-71
2021/06/06 00:36:39;;;;;;;6.90;5.82;;;20.00;69.30;;;;;;6250168;23;20016;-71
2021/06/06 00:39:05;;;;;;;9.20;6.57;;;20.00;69.30;;;;;;6260621;23;20016;-71
2021/06/06 00:41:32;;;;;;;6.78;6.07;;;20.00;69.30;;;;;;6233389;23;20313;-71
2021/06/06 00:43:58;;;;;;;7.53;6.72;;;20.00;69.20;;;;;;6260071;23;20062;-71
2021/06/06 00:46:28;;;;;;;7.20;6.50;;;20.00;69.20;;;;;;6259927;23;20145;-71
2021/06/06 00:48:55;;;;;;;7.63;6.80;;;20.00;69.20;;;;;;6259735;23;20079;-71
2021/06/06 00:51:47;;;;;;;9.05;6.78;;;20.00;69.20;;;;;;6259643;23;20015;-70
2021/06/06 00:54:24;;;;;;;8.30;7.18;;;20.00;69.20;;;;;;6234267;23;20017;-71
2021/06/06 00:56:56;;;;;;;8.55;6.47;;;20.00;69.30;;;;;;6250071;23;20313;-71
2021/06/06 00:59:26;;;;;;;7.30;6.50;;;20.00;69.30;;;;;;6259920;23;20016;-71
2021/06/06 01:01:52;;;;;;;8.80;6.72;;;20.00;69.30;;;;;;6259435;23;20723;-71
2021/06/06 01:04:18;;;;;;;9.20;6.43;;;20.00;69.40;;;;;;6261190;23;20012;-70
2021/06/06 01:06:49;;;;;;;8.75;6.82;;;20.00;69.40;;;;;;6250414;23;20103;-71
2021/06/06 01:09:18;;;;;;;8.02;7.10;;;20.00;69.40;;;;;;6260065;23;20083;-71
2021/06/06 01:12:05;;;;;;;9.20;7.05;;;20.00;69.40;;;;;;6259808;23;20035;-71
2021/06/06 01:14:52;;;;;;;8.25;6.97;;;20.00;69.40;;;;;;6259531;23;20083;-71
2021/06/06 01:17:33;;;;;;;8.98;7.32;;;20.00;69.40;;;;;;6259487;23;20146;-71
2021/06/06 01:20:08;;;;;;;8.65;7.25;;;20.00;69.40;;;;;;6249430;23;20016;-71
2021/06/06 01:22:39;;;;;;;9.35;7.30;;;20.00;69.40;;;;;;6249522;23;20302;-71
2021/06/06 01:25:24;;;;;;;9.38;7.45;;;20.00;69.40;;;;;;6260145;23;20027;-71
2021/06/06 01:27:59;;;;;;;8.45;7.47;;;20.00;69.40;;;;;;6259310;23;20488;-71
2021/06/06 01:30:30;;;;;;;10.05;7.90;;;20.00;69.40;;;;;;6259634;23;20016;-71
2021/06/06 01:33:08;;;;;;;7.68;6.90;;;20.00;69.40;;;;;;6259607;23;20384;-71
2021/06/06 01:35:48;;;;;;;8.05;6.95;;;19.90;69.40;;;;;;6259699;23;20016;-71
2021/06/06 01:38:25;;;;;;;9.57;7.18;;;19.90;69.30;;;;;;6259592;23;20016;-71
2021/06/06 01:40:58;;;;;;;8.48;7.30;;;19.90;69.40;;;;;;6249254;23;20012;-71
2021/06/06 01:43:31;;;;;;;7.45;6.75;;;19.90;69.40;;;;;;6249294;23;20027;-71
2021/06/06 01:46:01;;;;;;;8.15;6.97;;;19.90;69.30;;;;;;6259708;23;20023;-71
2021/06/06 01:48:28;;;;;;;8.05;7.25;;;19.90;69.30;;;;;;6260025;23;20012;-71
2021/06/06 01:51:22;;;;;;;9.32;7.05;;;20.00;69.30;;;;;;6260514;23;20012;-71
2021/06/06 01:53:50;;;;;;;7.80;6.78;;;19.90;69.20;;;;;;6259163;23;20368;-71
2021/06/06 01:56:24;;;;;;;9.07;7.70;;;19.90;69.20;;;;;;6259080;23;20019;-71
2021/06/06 01:58:57;;;;;;;8.80;7.60;;;19.90;69.20;;;;;;6250170;23;20020;-71
2021/06/06 02:01:25;;;;;;;8.35;7.55;;;19.90;69.20;;;;;;6259276;23;20109;-71
2021/06/06 02:03:56;;;;;;;8.07;7.32;;;19.90;69.20;;;;;;6259596;23;20433;-71
2021/06/06 02:06:29;;;;;;;8.02;6.90;;;19.90;69.20;;;;;;6250198;23;20016;-71
2021/06/06 02:08:57;;;;;;;11.15;7.95;;;19.90;69.30;;;;;;6249047;23;20051;-71
2021/06/06 02:11:32;;;;;;;8.43;7.63;;;19.90;69.20;;;;;;6259797;23;20099;-71
2021/06/06 02:14:07;;;;;;;8.73;7.18;;;19.90;69.20;;;;;;6249270;23;20103;-71
2021/06/06 02:16:39;;;;;;;8.60;7.80;;;19.90;69.20;;;;;;6223828;23;20370;-71
2021/06/06 02:19:06;;;;;;;9.90;8.32;;;19.90;69.30;;;;;;6249935;23;20024;-70
2021/06/06 02:21:32;;;;;;;8.40;7.40;;;19.90;69.30;;;;;;6232762;23;20382;-71
2021/06/06 02:23:59;;;;;;;9.30;7.68;;;19.90;69.30;;;;;;6248777;23;20023;-71
2021/06/06 02:26:39;;;;;;;8.55;7.65;;;19.90;69.30;;;;;;6249214;23;20032;-71
2021/06/06 02:29:24;;;;;;;10.50;7.88;;;19.90;69.20;;;;;;6258677;23;20333;-71
2021/06/06 02:32:20;;;;;;;8.85;7.95;;;19.90;69.20;;;;;;6259013;23;20019;-71
2021/06/06 02:34:46;;;;;;;8.38;7.57;;;19.90;69.30;;;;;;6248976;23;20035;-71
2021/06/06 02:37:18;;;;;;;7.93;7.13;;;19.90;69.40;;;;;;6248903;23;20417;-70
2021/06/06 02:39:50;;;;;;;9.17;7.47;;;19.90;69.30;;;;;;6223156;23;20320;-71
2021/06/06 02:42:34;;;;;;;8.45;7.55;;;19.90;69.30;;;;;;6259280;23;20019;-71
2021/06/06 02:45:17;;;;;;;8.80;7.72;;;19.90;69.30;;;;;;6259600;23;20016;-71
2021/06/06 02:47:45;;;;;;;9.23;7.53;;;19.90;69.30;;;;;;6258861;23;20016;-71
2021/06/06 02:50:44;;;;;;;8.40;7.05;;;19.90;69.30;;;;;;6249045;23;20368;-71
2021/06/06 02:53:32;;;;;;;8.35;7.50;;;19.90;69.30;;;;;;6222284;23;20031;-71
2021/06/06 02:56:19;;;;;;;7.82;7.05;;;19.90;69.30;;;;;;6259466;23;20079;-71
2021/06/06 02:58:49;;;;;;;8.68;7.53;;;19.90;69.20;;;;;;6231615;23;20023;-71
2021/06/06 03:01:30;;;;;;;7.40;6.32;;;19.90;69.20;;;;;;6258265;23;20421;-71
2021/06/06 03:03:58;;;;;;;8.18;7.15;;;19.90;69.20;;;;;;6259045;23;20027;-71
2021/06/06 03:06:35;;;;;;;8.32;6.85;;;19.80;69.10;;;;;;6248420;23;20044;-71
2021/06/06 03:09:02;;;;;;;8.35;7.45;;;19.80;69.10;;;;;;6259234;23;20039;-71
2021/06/06 03:11:29;;;;;;;8.32;7.18;;;19.80;69.10;;;;;;6248550;23;20309;-71
2021/06/06 03:14:00;;;;;;;9.05;7.60;;;19.80;69.10;;;;;;6248383;23;20016;-70
2021/06/06 03:16:27;;;;;;;8.80;7.53;;;19.90;69.20;;;;;;6250884;23;20028;-71
2021/06/06 03:18:56;;;;;;;8.68;7.47;;;19.80;69.10;;;;;;6258677;23;20012;-71
2021/06/06 03:21:30;;;;;;;10.18;7.18;;;19.90;69.20;;;;;;6248486;23;20093;-71
2021/06/06 03:24:00;;;;;;;;;;;19.80;69.10;;;;;;6259189;23;20039;-71
2021/06/06 03:26:27;;;;;;;8.95;7.78;;;19.80;69.10;;;;;;6258906;23;19927;-71
2021/06/06 03:28:54;;;;;;;9.23;7.80;;;19.80;69.20;;;;;;6248508;23;20020;-71
2021/06/06 03:31:27;;;;;;;9.50;7.45;;;19.80;69.20;;;;;;6258675;23;20020;-71
2021/06/06 03:33:59;;;;;;;9.45;7.85;;;19.80;69.20;;;;;;6258538;23;20106;-71
2021/06/06 03:36:35;;;;;;;8.82;7.57;;;19.80;69.20;;;;;;6248402;23;20107;-71
2021/06/06 03:39:07;;;;;;;9.98;8.13;;;19.80;69.20;;;;;;6258479;23;20012;-71
2021/06/06 03:41:33;;;;;;;9.95;7.78;;;19.80;69.20;;;;;;6258067;23;20359;-71
2021/06/06 03:44:00;;;;;;;9.43;7.55;;;19.80;69.30;;;;;;6258230;23;20095;-72
2021/06/06 03:46:28;;;;;;;8.85;7.95;;;19.80;69.20;;;;;;6249047;23;20023;-71
2021/06/06 03:48:54;;;;;;;9.10;7.95;;;19.80;69.20;;;;;;6258687;23;20027;-71
2021/06/06 03:51:21;;;;;;;8.57;7.50;;;19.80;69.20;;;;;;6249152;23;20016;-71
2021/06/06 03:53:48;;;;;;;8.80;7.20;;;19.80;69.20;;;;;;6248104;23;20020;-70
2021/06/06 03:56:14;;;;;;;9.05;7.55;;;19.80;69.20;;;;;;6259076;23;20019;-71
2021/06/06 03:58:41;;;;;;;9.40;7.50;;;19.80;69.20;;;;;;6258301;23;20016;-71
2021/06/06 04:01:08;;;;;;;8.18;7.10;;;19.80;69.20;;;;;;6258503;23;20066;-71
2021/06/06 04:03:34;;;;;;;8.30;6.97;;;19.80;69.20;;;;;;6258342;23;20040;-71
2021/06/06 04:06:00;;;;;;;9.45;7.20;;;19.80;69.20;;;;;;6258420;23;20020;-71
2021/06/06 04:08:26;;;;;;;8.43;7.15;;;19.80;69.10;;;;;;6259035;23;20279;-71
2021/06/06 04:10:53;;;;;;;9.25;7.57;;;19.80;69.10;;;;;;6259825;23;20043;-71
2021/06/06 04:13:20;;;;;;;9.48;7.45;;;19.80;69.10;;;;;;6260558;23;20096;-70
2021/06/06 04:15:46;;;;;;;7.65;6.80;;;19.80;69.10;;;;;;6250104;23;20063;-71
2021/06/06 04:18:13;;;;;;;7.82;6.93;;;19.70;69.00;;;;;;6260790;23;20421;-71
2021/06/06 04:20:41;;;;;;;8.73;6.70;;;19.80;69.10;;;;;;6250051;23;20070;-71
2021/06/06 04:23:07;;;;;;;9.07;7.05;;;19.80;69.00;;;;;;6250139;23;20016;-71
2021/06/06 04:25:33;;;;;;;10.07;7.38;;;19.80;69.00;;;;;;6249936;23;20047;-71
2021/06/06 04:28:00;;;;;;;8.77;7.13;;;19.70;69.00;;;;;;6260403;23;20039;-71
2021/06/06 04:30:26;;;;;;;9.55;7.82;;;19.70;69.00;;;;;;6250173;23;20024;-71
2021/06/06 04:32:52;;;;;;;8.13;6.68;;;19.80;69.10;;;;;;6260914;23;20087;-70
2021/06/06 04:35:18;;;;;;;9.20;7.22;;;19.70;69.00;;;;;;6260338;23;20012;-71
2021/06/06 04:37:44;;;;;;;7.78;6.97;;;19.70;69.10;;;;;;6260169;23;20012;-70
2021/06/06 04:40:13;;;;;;;9.30;6.55;;;19.80;69.10;;;;;;6260034;23;20016;-71
2021/06/06 04:42:39;;;;;;;8.85;7.63;;;19.70;69.10;;;;;;6260324;23;20044;-71
2021/06/06 04:45:07;;;;;;;8.85;6.55;;;19.70;69.10;;;;;;6259741;23;20030;-71
2021/06/06 04:47:33;;;;;;;8.43;7.28;;;19.70;69.10;;;;;;6260925;23;20074;-71
2021/06/06 04:49:59;;;;;;;7.50;6.65;;;19.70;69.10;;;;;;6260636;23;20011;-71
2021/06/06 04:52:25;;;;;;;9.52;6.82;;;19.70;69.10;;;;;;6234353;23;20043;-71
2021/06/06 04:54:51;;;;;;;6.88;6.18;;;19.70;69.10;;;;;;6260272;23;20012;-71
2021/06/06 04:57:16;;;;;;;7.80;7.00;;;19.70;69.10;;;;;;6260110;23;20087;-71
2021/06/06 04:59:43;;;;;;;6.78;5.95;;;19.70;69.10;;;;;;6259897;23;20313;-71
2021/06/06 05:02:10;;;;;;;8.05;6.53;;;19.70;69.10;;;;;;6259931;23;20299;-71
2021/06/06 05:04:38;;;;;;;8.15;6.53;;;19.70;69.10;;;;;;6260210;23;20016;-71
2021/06/06 05:07:04;;;;;;;7.40;5.80;;;19.70;69.10;;;;;;6259741;23;20487;-71
2021/06/06 05:09:30;;;;;;;6.68;5.93;;;19.70;69.10;;;;;;6259468;23;20301;-70
2021/06/06 05:11:56;;;;;;;6.97;6.20;;;19.70;69.10;;;;;;6259834;23;20035;-70
2021/06/06 05:14:22;;;;;;;7.65;5.63;;;19.70;69.10;;;;;;6259921;23;20020;-70
2021/06/06 05:16:47;;;;;;;7.55;5.78;;;19.70;69.10;;;;;;6249420;23;20282;-71
2021/06/06 05:19:14;;;;;;;7.00;6.07;;;19.70;69.10;;;;;;6260345;23;20054;-71
2021/06/06 05:21:39;;;;;;;6.97;6.18;;;19.70;69.10;;;;;;6249256;23;20298;-70
2021/06/06 05:24:06;;;;;;;7.10;5.60;;;19.70;69.10;;;;;;6249896;23;20035;-70
2021/06/06 05:26:32;;;;;;;6.35;5.70;;;19.70;69.00;;;;;;6259695;23;20019;-71
2021/06/06 05:28:58;;;;;;;7.10;5.65;;;19.70;69.00;;;;;;6249369;23;20468;-71
2021/06/06 05:31:24;;;;;;;6.13;5.28;;;19.70;69.00;;;;;;6259755;23;20012;-71
2021/06/06 05:33:50;;;;;;;6.93;5.28;;;19.60;68.90;;;;;;6249395;23;20020;-70
2021/06/06 05:36:16;;;;;;;6.53;5.53;;;19.70;69.00;;;;;;6249467;23;20126;-70
2021/06/06 05:38:43;;;;;;;6.88;5.70;;;19.70;69.00;;;;;;6259248;23;20019;-71
2021/06/06 05:41:09;;;;;;;6.70;5.85;;;19.70;69.00;;;;;;6248837;23;20437;-71
2021/06/06 05:43:36;;;;;;;7.50;6.10;;;19.70;69.00;;;;;;6260231;23;20044;-70
2021/06/06 05:46:02;;;;;;;6.38;5.75;;;19.60;69.00;;;;;;6249769;23;20012;-71
2021/06/06 05:48:28;;;;;;;7.32;5.68;;;19.60;69.00;;;;;;6260499;23;20020;-70
2021/06/06 05:50:57;;;;;;;7.65;5.90;;;19.60;69.00;;;;;;6249488;23;20039;-71
2021/06/06 05:53:24;;;;;;;6.30;5.60;;;19.60;69.20;;;;;;6249284;23;20016;-71
2021/06/06 05:55:50;;;;;;;6.63;5.82;;;19.60;69.00;;;;;;6249232;23;20027;-71
2021/06/06 05:58:16;;;;;;;6.78;5.45;;;19.60;69.10;;;;;;6259991;23;20034;-70
2021/06/06 06:00:45;;;;;;;8.63;5.75;;;19.70;69.10;;;;;;6259939;23;20008;-71
2021/06/06 06:03:11;;;;;;;6.32;5.32;;;19.60;69.00;;;;;;6258885;23;20024;-71
2021/06/06 06:05:37;;;;;;;7.40;5.95;;;19.70;69.10;;;;;;6259513;23;20023;-71
2021/06/06 06:08:22;;;;;;;6.05;5.45;;;19.70;69.10;;;;;;6259287;23;20016;-71
2021/06/06 06:10:49;;;;;;;8.23;6.10;;;19.70;69.10;;;;;;6259740;23;20043;-71
2021/06/06 06:13:16;;;;;;;6.35;5.53;;;19.70;69.10;;;;;;6259628;23;20039;-71
2021/06/06 06:15:42;;;;;;;6.30;5.10;;;19.60;69.00;;;;;;6253281;23;20023;-71
2021/06/06 06:18:10;;;;;;;6.32;5.20;;;19.60;69.00;;;;;;6259293;23;20016;-71
2021/06/06 06:20:36;;;;;;;6.95;5.45;;;19.60;69.00;;;;;;6259311;23;20027;-71
2021/06/06 06:23:03;;;;;;;6.88;5.95;;;19.60;69.10;;;;;;6259704;23;20022;-71
2021/06/06 06:25:29;;;;;;;6.30;5.70;;;19.60;69.10;;;;;;6259825;23;20081;-71
2021/06/06 06:27:54;;;;;;;6.22;5.18;;;19.70;69.10;;;;;;6259143;23;20016;-70
2021/06/06 06:30:27;;;;;;;7.25;5.63;;;19.60;69.10;;;;;;6259080;23;20019;-71
2021/06/06 06:32:53;;;;;;;6.03;5.32;;;19.60;69.00;;;;;;6259006;23;20023;-71
2021/06/06 06:35:19;;;;;;;5.78;5.18;;;19.60;69.00;;;;;;6258986;23;20066;-71
2021/06/06 06:37:45;;;;;;;6.30;5.60;;;19.60;69.00;;;;;;6233035;23;20055;-70
2021/06/06 06:40:15;;;;;;;5.63;5.10;;;19.60;69.00;;;;;;6248540;23;20012;-71
2021/06/06 06:42:42;;;;;;;6.88;5.50;;;19.60;68.90;;;;;;6259321;23;20016;-71
2021/06/06 06:45:12;;;;;;;6.10;4.80;;;19.60;68.90;;;;;;6248732;23;20031;-71
2021/06/06 06:47:37;;;;;;;6.18;5.18;;;19.60;68.90;;;;;;6232465;23;20023;-71
2021/06/06 06:50:05;;;;;;;5.20;4.68;;;19.60;68.90;;;;;;6259465;23;20016;-71
2021/06/06 06:52:37;;;;;;;;;;;19.60;68.90;;;;;;6259240;23;20012;-71
2021/06/06 06:55:09;;;;;;;6.82;5.63;;;19.60;68.90;;;;;;6259564;23;19922;-71
2021/06/06 06:57:37;;;;;;;4.97;4.40;;;19.60;69.00;;;;;;6248552;23;20020;-71
2021/06/06 07:00:06;;;;;;;6.25;5.65;;;19.60;69.00;;;;;;6248615;23;20039;-71
2021/06/06 07:02:32;;;;;;;5.72;4.93;;;19.60;69.00;;;;;;6248400;23;20020;-71
2021/06/06 07:04:58;;;;;;;6.28;4.93;;;19.60;69.60;;;;;;6259400;23;20027;-71
2021/06/06 07:07:24;;;;;;;6.63;5.20;;;19.60;69.00;;;;;;6248422;23;20024;-70
2021/06/06 07:09:50;;;;;;;7.03;4.88;;;19.60;69.00;;;;;;6248594;23;20027;-71
2021/06/06 07:12:16;;;;;;;7.43;5.32;;;19.60;69.00;;;;;;6258900;23;20012;-71
2021/06/06 07:14:42;;;;;;;5.93;4.85;;;19.60;69.00;;;;;;6258022;23;20048;-72
2021/06/06 07:17:08;;;;;;;5.57;4.63;;;19.60;69.10;;;;;;6258609;23;20027;-71
2021/06/06 07:19:35;;;;;;;6.40;4.72;;;19.60;69.10;;;;;;6249045;23;20027;-71
2021/06/06 07:22:01;;;;;;;5.30;4.47;;;19.60;69.10;;;;;;6258911;23;20312;-71
2021/06/06 07:24:35;;;;;;;5.70;4.80;;;19.60;69.00;;;;;;6248333;23;20020;-71
2021/06/06 07:27:02;;;;;;;6.78;5.00;;;19.60;69.00;;;;;;6258660;23;20019;-70
2021/06/06 07:29:36;;;;;;;5.25;4.75;;;19.60;69.00;;;;;;6258501;23;20019;-71
2021/06/06 07:32:05;;;;;;;5.53;4.45;;;19.60;69.00;;;;;;6258577;23;20293;-71
2021/06/06 07:34:31;;;;;;;4.97;4.32;;;19.60;69.00;;;;;;6258148;23;20425;-71
2021/06/06 07:37:00;;;;;;;5.72;4.43;;;19.60;69.00;;;;;;6258865;23;20036;-71
2021/06/06 07:39:37;;;;;;;6.43;4.70;;;19.60;69.60;;;;;;6247859;23;20392;-71
2021/06/06 07:42:08;;;;;;;5.40;4.35;;;19.60;69.00;;;;;;6248079;23;20023;-70
2021/06/06 07:44:35;;;;;;;5.07;4.32;;;19.60;69.00;;;;;;6258749;23;20391;-71
2021/06/06 07:47:07;;;;;;;4.93;4.15;;;19.60;69.00;;;;;;6248148;23;20020;-70
2021/06/06 07:49:37;;;;;;;5.13;4.55;;;19.60;68.90;;;;;;6258685;23;20027;-71
2021/06/06 07:52:04;;;;;;;4.20;3.70;;;19.60;68.90;;;;;;6257990;23;20043;-71
2021/06/06 07:54:29;;;;;;;5.03;4.53;;;19.60;68.90;;;;;;6257950;23;20020;-71
2021/06/06 07:56:57;;;;;;;4.63;4.18;;;19.60;69.00;;;;;;6258701;23;20091;-71
2021/06/06 07:59:24;;;;;;;5.90;4.47;;;19.50;68.90;;;;;;6258331;23;20012;-71
2021/06/06 08:01:50;;;;;;;6.53;4.32;;;19.60;68.90;;;;;;6258341;23;20464;-71
2021/06/06 08:04:16;;;;;;;4.57;3.90;;;19.60;68.90;;;;;;6258228;23;20036;-71
2021/06/06 08:06:43;;;;;;;4.88;3.88;;;19.50;68.90;;;;;;6258515;23;20066;-71
2021/06/06 08:09:09;;;;;;;5.72;4.20;;;19.60;68.90;;;;;;6248964;23;20016;-71
2021/06/06 08:11:36;;;;;;;4.15;3.75;;;19.60;69.00;;;;;;6258341;23;20016;-71
2021/06/06 08:14:03;;;;;;;4.55;3.88;;;19.60;69.00;;;;;;6258312;23;20488;-71
2021/06/06 08:16:29;;;;;;;4.55;3.92;;;19.60;69.00;;;;;;6250652;23;20020;-71
2021/06/06 08:18:54;;;;;;;5.55;3.97;;;19.50;68.90;;;;;;6248077;23;20016;-71
2021/06/06 08:21:27;;;;;;;4.68;4.00;;;19.60;69.00;;;;;;6247987;23;20089;-71
2021/06/06 08:23:53;;;;;;;4.40;4.00;;;19.50;68.90;;;;;;6258289;23;20101;-71
2021/06/06 08:26:20;;;;;;;5.20;3.88;;;19.50;68.90;;;;;;6258294;23;20012;-71
2021/06/06 08:28:48;;;;;;;5.25;4.18;;;19.50;69.00;;;;;;6248020;23;20146;-71
2021/06/06 08:31:17;;;;;;;6.43;4.72;;;19.50;69.00;;;;;;6259181;23;20020;-71
2021/06/06 08:33:44;;;;;;;5.85;4.40;;;19.60;69.00;;;;;;6248967;23;20095;-71
2021/06/06 08:36:25;;;;;;;5.03;4.40;;;19.50;68.90;;;;;;6258156;23;20019;-71
2021/06/06 08:38:52;;;;;;;5.18;3.83;;;19.60;69.00;;;;;;6258688;23;20417;-71
2021/06/06 08:41:20;;;;;;;4.10;3.60;;;19.60;69.00;;;;;;6258155;23;20091;-71
2021/06/06 08:44:07;;;;;;;5.72;3.97;;;19.60;69.10;;;;;;6258091;23;20035;-71
2021/06/06 08:46:43;;;;;;;4.63;4.13;;;19.60;69.10;;;;;;6258049;23;20016;-71
2021/06/06 08:49:08;;;;;;;5.18;3.90;;;19.50;69.00;;;;;;6258767;23;20016;-71
2021/06/06 08:51:37;;;;;;;4.80;3.60;;;19.50;69.10;;;;;;6258631;23;20016;-71
2021/06/06 08:54:21;;;;;;;5.15;4.22;;;19.60;69.30;;;;;;6258085;23;20421;-71
2021/06/06 08:56:52;;;;;;;5.70;3.78;;;19.60;69.10;;;;;;6258755;23;20012;-71
2021/06/06 08:59:23;;;;;;;5.32;4.43;;;19.60;69.10;;;;;;6259887;23;20046;-71
2021/06/06 09:01:55;;;;;;;5.55;3.53;;;19.60;69.10;;;;;;6260508;23;20016;-71
2021/06/06 09:04:25;;;;;;;4.80;3.58;;;19.50;69.10;;;;;;6250155;23;20012;-71
2021/06/06 09:06:53;;;;;;;4.40;3.58;;;19.50;69.10;;;;;;6260585;23;20016;-71
2021/06/06 09:09:23;;;;;;;4.43;3.92;;;19.50;69.10;;;;;;6260004;23;20012;-71
2021/06/06 09:11:50;;;;;;;3.80;3.30;;;19.50;69.10;;;;;;6249610;23;20013;-71
2021/06/06 09:14:16;;;;;;;5.40;3.63;;;19.60;69.20;;;;;;6260371;23;20023;-71
2021/06/06 09:17:07;;;;;;;4.22;3.58;;;19.50;69.10;;;;;;6252862;23;20016;-71
2021/06/06 09:19:46;;;;;;;4.50;3.97;;;19.50;69.10;;;;;;6260353;23;20016;-71
2021/06/06 09:22:14;;;;;;;4.00;3.55;;;19.60;69.20;;;;;;6259300;23;20427;-71
2021/06/06 09:24:47;;;;;;;4.70;3.53;;;19.60;69.20;;;;;;6260045;23;20439;-71
2021/06/06 09:27:14;;;;;;;5.13;3.80;;;19.60;69.30;;;;;;6260065;23;20016;-71
2021/06/06 09:29:42;;;;;;;4.65;3.55;;;19.50;69.20;;;;;;6249481;23;20035;-71
2021/06/06 09:32:14;;;;;;;4.75;3.28;;;19.60;69.30;;;;;;6259736;23;20087;-71
2021/06/06 09:34:56;;;;;;;4.70;3.50;;;19.50;69.20;;;;;;6259649;23;20094;-71
2021/06/06 09:37:24;;;;;;;4.95;3.90;;;19.60;69.30;;;;;;6260668;23;20065;-71
2021/06/06 09:40:08;;;;;;;4.97;3.63;;;19.50;69.30;;;;;;6259630;23;20026;-71
2021/06/06 09:42:46;;;;;;;3.75;3.03;;;19.60;69.40;;;;;;6259485;23;20019;-71
2021/06/06 09:45:28;;;;;;;3.53;3.22;;;19.60;69.40;;;;;;6259136;23;20313;-71
2021/06/06 09:47:58;;;;;;;3.70;3.20;;;19.50;69.30;;;;;;6259157;23;20476;-70
2021/06/06 09:50:28;;;;;;;3.53;3.22;;;19.50;69.40;;;;;;6260183;23;20032;-71
2021/06/06 09:52:54;;;;;;;4.35;3.03;;;19.50;69.40;;;;;;6259004;23;20317;-71
2021/06/06 09:55:34;;;;;;;3.55;2.83;;;19.60;69.50;;;;;;6259419;23;20119;-71
2021/06/06 09:58:09;;;;;;;4.20;3.30;;;19.60;69.40;;;;;;6259729;23;20050;-71
2021/06/06 10:00:39;;;;;;;3.38;3.08;;;19.60;69.50;;;;;;6259684;23;20027;-71
2021/06/06 10:03:48;;;;;;;3.40;3.05;;;19.60;69.50;;;;;;6260131;23;20016;-71
2021/06/06 10:06:38;;;;;;;4.30;2.90;;;19.60;69.40;;;;;;6203199;23;20107;-71
2021/06/06 10:09:33;;;;;;;3.80;3.17;;;19.60;69.50;;;;;;6259132;23;20314;-71
2021/06/06 10:12:04;;;;;;;3.97;2.60;;;19.60;69.50;;;;;;6224426;23;20443;-70
2021/06/06 10:14:50;;;;;;;3.90;3.25;;;19.60;69.60;;;;;;6259207;23;20011;-71
2021/06/06 10:17:49;;;;;;;3.47;3.03;;;19.60;69.60;;;;;;6249513;23;20051;-71
2021/06/06 10:20:22;;;;;;;3.80;3.30;;;19.60;69.50;;;;;;6144627;23;20384;-71
2021/06/06 10:22:54;;;;;;;3.83;2.85;;;19.60;69.60;;;;;;6249015;23;20027;-71
2021/06/06 10:25:40;;;;;;;3.42;3.13;;;19.60;69.60;;;;;;6259205;23;20085;-71
2021/06/06 10:28:07;;;;;;;3.97;2.95;;;19.60;69.60;;;;;;6249265;23;20377;-71
2021/06/06 10:30:43;;;;;;;4.13;3.10;;;19.60;69.60;;;;;;6259618;23;20008;-71
2021/06/06 10:33:29;;;;;;;4.45;3.03;;;19.60;69.60;;;;;;6259025;23;20091;-71
2021/06/06 10:36:01;;;;;;;3.58;3.17;;;19.60;69.60;;;;;;6259062;23;20048;-71
2021/06/06 10:38:28;;;;;;;4.15;2.92;;;19.60;69.60;;;;;;6259646;23;20023;-71
2021/06/06 10:40:59;;;;;;;3.78;2.88;;;19.60;69.60;;;;;;6248612;23;20414;-71
2021/06/06 10:43:30;;;;;;;4.10;3.08;;;19.60;69.60;;;;;;6258878;23;20026;-71
2021/06/06 10:46:16;;;;;;;3.08;2.75;;;19.60;69.60;;;;;;6258919;23;20035;-71
2021/06/06 10:48:53;;;;;;;4.03;2.92;;;19.60;69.60;;;;;;6248617;23;20027;-71
2021/06/06 10:51:31;;;;;;;4.50;3.08;;;19.60;69.50;;;;;;6258591;23;20310;-70
2021/06/06 10:54:00;;;;;;;3.88;2.80;;;19.60;69.60;;;;;;6258741;23;20098;-71
2021/06/06 10:56:40;;;;;;;3.75;2.67;;;19.60;69.60;;;;;;6259045;23;20321;-71
2021/06/06 10:59:08;;;;;;;3.25;2.90;;;19.70;69.60;;;;;;6248745;23;20081;-71
2021/06/06 11:01:43;;;;;;;3.80;2.83;;;19.60;69.60;;;;;;6258732;23;20030;-71
2021/06/06 11:04:17;;;;;;;3.33;2.60;;;19.70;69.60;;;;;;6258479;23;20370;-70
2021/06/06 11:06:46;;;;;;;;;;;19.70;69.60;;;;;;6259485;23;20036;-71
2021/06/06 11:09:31;;;;;;;4.55;2.47;;;19.60;69.60;;;;;;6259773;23;19916;-71
2021/06/06 11:12:12;;;;;;;3.83;2.80;;;19.60;69.60;;;;;;6251240;23;20012;-71
2021/06/06 11:14:49;;;;;;;2.88;2.58;;;19.60;69.60;;;;;;6259308;23;20016;-71
2021/06/06 11:17:34;;;;;;;4.00;2.63;;;19.60;69.60;;;;;;6249670;23;20439;-71
2021/06/06 11:20:14;;;;;;;4.25;2.75;;;19.70;69.60;;;;;;6258154;23;20012;-71
2021/06/06 11:22:45;;;;;;;4.03;2.90;;;19.60;69.60;;;;;;6258549;23;20024;-71
2021/06/06 11:25:29;;;;;;;3.28;2.70;;;19.70;69.70;;;;;;6258302;23;20087;-70
2021/06/06 11:28:25;;;;;;;4.35;2.88;;;19.70;69.70;;;;;;6258232;23;20020;-71
2021/06/06 11:30:54;;;;;;;2.67;2.30;;;19.70;69.80;;;;;;6258885;23;20016;-71
2021/06/06 11:33:53;;;;;;;4.03;3.40;;;19.70;69.80;;;;;;6258782;23;20409;-71
2021/06/06 11:36:44;;;;;;;4.15;2.33;;;19.70;69.70;;;;;;6259200;23;20047;-71
2021/06/06 11:39:29;;;;;;;3.22;2.90;;;19.70;69.80;;;;;;6259190;23;20016;-71
2021/06/06 11:41:56;;;;;;;3.60;2.38;;;19.70;69.90;;;;;;6258476;23;20035;-71
2021/06/06 11:44:27;;;;;;;3.90;2.85;;;19.70;70.00;;;;;;6258094;23;20074;-71
2021/06/06 11:47:06;;;;;;;3.42;2.88;;;19.70;70.00;;;;;;6258231;23;20086;-71
2021/06/06 11:49:34;;;;;;;2.60;2.40;;;19.70;70.00;;;;;;6258499;23;20017;-71
2021/06/06 11:52:23;;;;;;;2.95;2.47;;;19.70;70.10;;;;;;6259133;23;20023;-71
2021/06/06 11:55:08;;;;;;;3.88;2.50;;;19.70;70.00;;;;;;6233163;23;20085;-71
2021/06/06 11:57:39;;;;;;;3.70;2.45;;;19.70;70.10;;;;;;6258405;23;20023;-71
2021/06/06 12:00:18;;;;;;;3.35;2.28;;;19.70;70.10;;;;;;6258806;23;20444;-71
2021/06/06 12:02:43;;;;;;;3.70;2.78;;;19.70;70.10;;;;;;6247939;23;20016;-71
2021/06/06 12:05:30;;;;;;;2.40;2.08;;;19.70;70.10;;;;;;6258352;23;20100;-71
2021/06/06 12:08:11;;;;;;;3.55;2.60;;;19.70;70.10;;;;;;6258835;23;20016;-71
2021/06/06 12:10:48;;;;;;;3.13;2.42;;;19.70;70.10;;;;;;6258980;23;20079;-71
2021/06/06 12:13:29;;;;;;;2.67;2.45;;;19.70;70.10;;;;;;6248305;23;20024;-71
2021/06/06 12:16:05;;;;;;;2.63;2.30;;;19.70;70.00;;;;;;6248377;23;20280;-71
2021/06/06 12:18:31;;;;;;;2.72;2.53;;;19.70;70.10;;;;;;6258260;23;20432;-71
2021/06/06 12:21:11;;;;;;;3.85;2.53;;;19.70;70.10;;;;;;6258371;23;20087;-71
2021/06/06 12:23:47;;;;;;;3.53;2.42;;;19.70;70.10;;;;;;6231817;23;20038;-71
2021/06/06 12:26:15;;;;;;;2.80;2.55;;;19.70;70.10;;;;;;6258540;23;20024;-71
2021/06/06 12:28:47;;;;;;;4.85;2.80;;;19.70;70.20;;;;;;6222053;23;20286;-71
2021/06/06 12:31:26;;;;;;;2.75;2.42;;;19.70;70.10;;;;;;6259255;23;20019;-71
2021/06/06 12:33:53;;;;;;;3.78;2.63;;;19.70;70.10;;;;;;6259966;23;20070;-71
2021/06/06 12:36:29;;;;;;;3.10;2.15;;;19.70;70.20;;;;;;6249842;23;20464;-71
2021/06/06 12:39:01;;;;;;;3.83;2.30;;;19.70;70.20;;;;;;6260834;23;20028;-71
2021/06/06 12:41:29;;;;;;;3.88;2.40;;;19.70;70.20;;;;;;6260376;23;20019;-71
2021/06/06 12:43:57;;;;;;;3.58;2.42;;;19.70;70.20;;;;;;6260136;23;20434;-71
2021/06/06 12:46:25;;;;;;;2.97;2.55;;;19.70;70.20;;;;;;6260827;23;20091;-71
2021/06/06 12:49:03;;;;;;;2.95;2.17;;;19.80;70.30;;;;;;6260322;23;20015;-71
2021/06/06 12:51:47;;;;;;;2.47;1.77;;;19.70;70.30;;;;;;6260493;23;20036;-71
2021/06/06 12:54:30;;;;;;;3.00;2.40;;;19.70;70.20;;;;;;6260315;23;20016;-71
2021/06/06 12:57:08;;;;;;;2.83;1.95;;;19.70;70.30;;;;;;6259974;23;20074;-71
2021/06/06 12:59:34;;;;;;;2.60;2.10;;;19.70;70.30;;;;;;6259657;23;20362;-70
2021/06/06 13:02:14;;;;;;;3.35;2.25;;;19.70;70.30;;;;;;6259917;23;20087;-71
2021/06/06 13:04:41;;;;;;;3.00;1.83;;;19.70;70.20;;;;;;6260632;23;20417;-71
2021/06/06 13:07:29;;;;;;;2.88;2.25;;;19.70;70.30;;;;;;6260609;23;20440;-71
2021/06/06 13:09:58;;;;;;;2.30;2.03;;;19.80;70.20;;;;;;6233580;23;20078;-71
2021/06/06 13:12:30;;;;;;;3.80;2.38;;;19.70;70.20;;;;;;6259879;23;20433;-71